sensor_id;sensor_type;location;lat;lon;timestamp;pressure;altitude;pressure_sealevel;temperature;humidity
60055;BME280;45930;53.514;55.904;2023-02-12T00:00:50;49536.06;;;-149.77;72.37
60055;BME280;45930;53.514;55.904;2023-02-12T00:01:51;49551.91;;;-149.77;72.02
60055;BME280;45930;53.514;55.904;2023-02-12T00:02:52;49536.06;;;-149.77;72.12
60055;BME280;45930;53.514;55.904;2023-02-12T00:03:53;49540.03;;;-149.77;71.93
60055;BME280;45930;53.514;55.904;2023-02-12T00:04:54;49549.94;;;-149.77;72.05
60055;BME280;45930;53.514;55.904;2023-02-12T00:05:59;49545.97;;;-149.77;71.52
60055;BME280;45930;53.514;55.904;2023-02-12T00:07:00;49559.81;;;-149.77;71.48
60055;BME280;45930;53.514;55.904;2023-02-12T00:08:01;49545.97;;;-149.77;71.46
60055;BME280;45930;53.514;55.904;2023-02-12T00:09:02;49575.69;;;-149.77;70.74
60055;BME280;45930;53.514;55.904;2023-02-12T00:10:03;49542.00;;;-149.77;70.76
60055;BME280;45930;53.514;55.904;2023-02-12T00:12:09;49532.09;;;-149.77;71.05
60055;BME280;45930;53.514;55.904;2023-02-12T00:13:10;49547.94;;;-149.77;70.97
60055;BME280;45930;53.514;55.904;2023-02-12T00:14:11;49514.28;;;-149.77;70.83
60055;BME280;45930;53.514;55.904;2023-02-12T00:15:12;49573.69;;;-149.77;70.84
60055;BME280;45930;53.514;55.904;2023-02-12T00:16:15;49547.94;;;-149.77;70.60
60055;BME280;45930;53.514;55.904;2023-02-12T00:17:17;49532.09;;;-149.77;70.38
60055;BME280;45930;53.514;55.904;2023-02-12T00:18:17;49565.78;;;-149.77;70.28
60055;BME280;45930;53.514;55.904;2023-02-12T00:19:18;49540.03;;;-149.77;70.61
60055;BME280;45930;53.514;55.904;2023-02-12T00:20:19;49583.59;;;-149.77;70.66
60055;BME280;45930;53.514;55.904;2023-02-12T00:21:20;49510.31;;;-149.77;70.83
60055;BME280;45930;53.514;55.904;2023-02-12T00:22:22;49542.00;;;-149.77;70.39
60055;BME280;45930;53.514;55.904;2023-02-12T00:23:22;49599.44;;;-149.77;71.06
60055;BME280;45930;53.514;55.904;2023-02-12T00:24:23;49571.72;;;-149.77;70.78
60055;BME280;45930;53.514;55.904;2023-02-12T00:25:24;49559.81;;;-149.77;71.13
60055;BME280;45930;53.514;55.904;2023-02-12T00:26:25;49532.09;;;-149.77;70.97
60055;BME280;45930;53.514;55.904;2023-02-12T00:27:26;49581.63;;;-149.77;71.05
60055;BME280;45930;53.514;55.904;2023-02-12T00:28:26;49557.84;;;-149.77;70.65
60055;BME280;45930;53.514;55.904;2023-02-12T00:29:27;49553.88;;;-149.77;70.85
60055;BME280;45930;53.514;55.904;2023-02-12T00:30:28;49555.88;;;-149.77;70.89
60055;BME280;45930;53.514;55.904;2023-02-12T00:31:30;49575.69;;;-149.77;71.74
60055;BME280;45930;53.514;55.904;2023-02-12T00:32:31;49575.69;;;-149.77;71.76
60055;BME280;45930;53.514;55.904;2023-02-12T00:33:32;49575.69;;;-149.77;71.82
60055;BME280;45930;53.514;55.904;2023-02-12T00:34:33;49559.81;;;-149.77;71.89
60055;BME280;45930;53.514;55.904;2023-02-12T00:35:34;49583.59;;;-149.77;72.83
60055;BME280;45930;53.514;55.904;2023-02-12T00:36:34;49559.81;;;-149.77;72.93
60055;BME280;45930;53.514;55.904;2023-02-12T00:37:35;49563.78;;;-149.77;72.81
60055;BME280;45930;53.514;55.904;2023-02-12T00:38:36;49553.88;;;-149.77;72.93
60055;BME280;45930;53.514;55.904;2023-02-12T00:39:37;49571.72;;;-149.77;72.59
60055;BME280;45930;53.514;55.904;2023-02-12T00:40:37;49599.44;;;-149.77;72.54
60055;BME280;45930;53.514;55.904;2023-02-12T00:41:38;49563.78;;;-149.77;72.57
60055;BME280;45930;53.514;55.904;2023-02-12T00:42:39;49567.75;;;-149.77;72.10
60055;BME280;45930;53.514;55.904;2023-02-12T00:43:40;49543.97;;;-149.77;72.22
60055;BME280;45930;53.514;55.904;2023-02-12T00:44:41;49567.75;;;-149.77;71.92
60055;BME280;45930;53.514;55.904;2023-02-12T00:45:44;49573.69;;;-149.77;70.91
60055;BME280;45930;53.514;55.904;2023-02-12T00:46:45;49569.72;;;-149.77;71.43
60055;BME280;45930;53.514;55.904;2023-02-12T00:47:45;49591.53;;;-149.77;70.97
60055;BME280;45930;53.514;55.904;2023-02-12T00:48:46;49571.72;;;-149.77;71.39
60055;BME280;45930;53.514;55.904;2023-02-12T00:49:47;49575.69;;;-149.77;71.58
60055;BME280;45930;53.514;55.904;2023-02-12T00:50:48;49543.97;;;-149.77;71.21
60055;BME280;45930;53.514;55.904;2023-02-12T00:51:49;49542.00;;;-149.77;71.14
60055;BME280;45930;53.514;55.904;2023-02-12T00:52:50;49543.97;;;-149.77;71.27
60055;BME280;45930;53.514;55.904;2023-02-12T00:53:51;49551.91;;;-149.77;71.22
60055;BME280;45930;53.514;55.904;2023-02-12T00:54:51;49545.97;;;-149.77;71.18
60055;BME280;45930;53.514;55.904;2023-02-12T00:55:52;49577.66;;;-149.77;71.14
60055;BME280;45930;53.514;55.904;2023-02-12T00:56:53;49581.63;;;-149.77;71.56
60055;BME280;45930;53.514;55.904;2023-02-12T00:57:55;49579.63;;;-149.77;71.38
60055;BME280;45930;53.514;55.904;2023-02-12T00:58:56;49540.03;;;-149.77;71.25
60055;BME280;45930;53.514;55.904;2023-02-12T00:59:56;49545.97;;;-149.77;71.32
60055;BME280;45930;53.514;55.904;2023-02-12T01:00:57;49579.63;;;-149.77;71.78
60055;BME280;45930;53.514;55.904;2023-02-12T01:01:58;49589.53;;;-149.77;71.94
60055;BME280;45930;53.514;55.904;2023-02-12T01:02:59;49579.63;;;-149.77;71.39
60055;BME280;45930;53.514;55.904;2023-02-12T01:03:59;49555.88;;;-149.77;71.86
60055;BME280;45930;53.514;55.904;2023-02-12T01:05:00;49585.59;;;-149.77;72.15
60055;BME280;45930;53.514;55.904;2023-02-12T01:06:01;49585.59;;;-149.77;71.86
60055;BME280;45930;53.514;55.904;2023-02-12T01:07:02;49587.56;;;-149.77;72.17
60055;BME280;45930;53.514;55.904;2023-02-12T01:08:03;49587.56;;;-149.77;72.58
60055;BME280;45930;53.514;55.904;2023-02-12T01:09:04;49585.59;;;-149.77;72.19
60055;BME280;45930;53.514;55.904;2023-02-12T01:10:06;49557.84;;;-149.77;72.23
60055;BME280;45930;53.514;55.904;2023-02-12T01:11:11;49597.47;;;-149.77;72.34
60055;BME280;45930;53.514;55.904;2023-02-12T01:12:12;49551.91;;;-149.77;72.03
60055;BME280;45930;53.514;55.904;2023-02-12T01:13:14;49575.69;;;-149.77;72.22
60055;BME280;45930;53.514;55.904;2023-02-12T01:14:14;49567.75;;;-149.77;71.99
60055;BME280;45930;53.514;55.904;2023-02-12T01:15:16;49581.63;;;-149.77;72.13
60055;BME280;45930;53.514;55.904;2023-02-12T01:16:18;49553.88;;;-149.77;72.21
60055;BME280;45930;53.514;55.904;2023-02-12T01:17:19;49545.97;;;-149.77;72.20
60055;BME280;45930;53.514;55.904;2023-02-12T01:18:20;49555.88;;;-149.77;72.05
60055;BME280;45930;53.514;55.904;2023-02-12T01:19:21;49581.63;;;-149.77;72.07
60055;BME280;45930;53.514;55.904;2023-02-12T01:20:23;49577.66;;;-149.77;71.94
60055;BME280;45930;53.514;55.904;2023-02-12T01:21:29;49518.22;;;-149.77;72.42
60055;BME280;45930;53.514;55.904;2023-02-12T01:22:30;49583.59;;;-149.77;72.39
60055;BME280;45930;53.514;55.904;2023-02-12T01:23:32;49571.72;;;-149.77;72.41
60055;BME280;45930;53.514;55.904;2023-02-12T01:24:33;49567.75;;;-149.77;72.25
60055;BME280;45930;53.514;55.904;2023-02-12T01:25:33;49601.44;;;-149.77;72.87
60055;BME280;45930;53.514;55.904;2023-02-12T01:26:34;49579.63;;;-149.77;72.86
60055;BME280;45930;53.514;55.904;2023-02-12T01:27:36;49571.72;;;-149.77;72.78
60055;BME280;45930;53.514;55.904;2023-02-12T01:28:38;49575.69;;;-149.77;72.71
60055;BME280;45930;53.514;55.904;2023-02-12T01:29:39;49607.38;;;-149.77;72.66
60055;BME280;45930;53.514;55.904;2023-02-12T01:30:44;49557.84;;;-149.77;72.98
60055;BME280;45930;53.514;55.904;2023-02-12T01:31:44;49581.63;;;-149.77;73.24
60055;BME280;45930;53.514;55.904;2023-02-12T01:32:45;49589.53;;;-149.77;74.04
60055;BME280;45930;53.514;55.904;2023-02-12T01:33:48;49567.75;;;-149.77;73.92
60055;BME280;45930;53.514;55.904;2023-02-12T01:34:49;49543.97;;;-149.77;74.33
60055;BME280;45930;53.514;55.904;2023-02-12T01:35:50;49536.06;;;-149.77;74.34
60055;BME280;45930;53.514;55.904;2023-02-12T01:36:51;49543.97;;;-149.77;74.24
60055;BME280;45930;53.514;55.904;2023-02-12T01:37:51;49567.75;;;-149.77;74.63
60055;BME280;45930;53.514;55.904;2023-02-12T01:38:52;49589.53;;;-149.77;74.52
60055;BME280;45930;53.514;55.904;2023-02-12T01:39:53;49579.63;;;-149.77;74.32
60055;BME280;45930;53.514;55.904;2023-02-12T01:41:05;49543.97;;;-149.77;74.54
60055;BME280;45930;53.514;55.904;2023-02-12T01:42:06;49581.63;;;-149.77;74.39
60055;BME280;45930;53.514;55.904;2023-02-12T01:43:11;49565.78;;;-149.77;74.40
60055;BME280;45930;53.514;55.904;2023-02-12T01:44:22;49573.69;;;-149.77;74.37
60055;BME280;45930;53.514;55.904;2023-02-12T01:46:36;49563.78;;;-149.77;74.29
60055;BME280;45930;53.514;55.904;2023-02-12T01:47:41;49575.69;;;-149.77;74.73
60055;BME280;45930;53.514;55.904;2023-02-12T01:48:44;49565.78;;;-149.77;74.72
60055;BME280;45930;53.514;55.904;2023-02-12T01:49:47;49543.97;;;-149.77;74.41
60055;BME280;45930;53.514;55.904;2023-02-12T01:50:50;49557.84;;;-149.77;74.61
60055;BME280;45930;53.514;55.904;2023-02-12T01:52:18;49563.78;;;-149.77;74.91
60055;BME280;45930;53.514;55.904;2023-02-12T01:53:21;49553.88;;;-149.77;74.77
60055;BME280;45930;53.514;55.904;2023-02-12T01:54:25;49542.00;;;-149.77;75.66
60055;BME280;45930;53.514;55.904;2023-02-12T01:55:26;49543.97;;;-149.77;75.66
60055;BME280;45930;53.514;55.904;2023-02-12T01:56:27;49536.06;;;-149.77;75.80
60055;BME280;45930;53.514;55.904;2023-02-12T01:57:31;49545.97;;;-149.77;75.96
60055;BME280;45930;53.514;55.904;2023-02-12T01:58:38;49555.88;;;-149.77;75.61
60055;BME280;45930;53.514;55.904;2023-02-12T01:59:42;49575.69;;;-149.77;75.95
60055;BME280;45930;53.514;55.904;2023-02-12T02:00:45;49567.75;;;-149.77;75.95
60055;BME280;45930;53.514;55.904;2023-02-12T02:01:46;49561.81;;;-149.77;76.29
60055;BME280;45930;53.514;55.904;2023-02-12T02:02:53;49559.81;;;-149.77;75.95
60055;BME280;45930;53.514;55.904;2023-02-12T02:04:01;49593.50;;;-149.77;76.35
60055;BME280;45930;53.514;55.904;2023-02-12T02:05:05;49549.94;;;-149.77;75.95
60055;BME280;45930;53.514;55.904;2023-02-12T02:06:19;49573.69;;;-149.77;76.14
60055;BME280;45930;53.514;55.904;2023-02-12T02:07:20;49577.66;;;-149.77;76.38
60055;BME280;45930;53.514;55.904;2023-02-12T02:08:22;49555.88;;;-149.77;76.17
60055;BME280;45930;53.514;55.904;2023-02-12T02:09:23;49569.72;;;-149.77;76.67
60055;BME280;45930;53.514;55.904;2023-02-12T02:10:24;49543.97;;;-149.77;77.28
60055;BME280;45930;53.514;55.904;2023-02-12T02:11:24;49557.84;;;-149.77;77.48
60055;BME280;45930;53.514;55.904;2023-02-12T02:12:44;49557.84;;;-149.77;77.74
60055;BME280;45930;53.514;55.904;2023-02-12T02:14:03;49551.91;;;-149.77;78.21
60055;BME280;45930;53.514;55.904;2023-02-12T02:15:24;49569.72;;;-149.77;78.23
60055;BME280;45930;53.514;55.904;2023-02-12T02:16:27;49563.78;;;-149.77;78.58
60055;BME280;45930;53.514;55.904;2023-02-12T02:17:49;49530.13;;;-149.77;79.27
60055;BME280;45930;53.514;55.904;2023-02-12T02:24:15;49573.69;;;-149.77;80.46
60055;BME280;45930;53.514;55.904;2023-02-12T02:27:05;49542.00;;;-149.77;80.51
60055;BME280;45930;53.514;55.904;2023-02-12T02:32:24;49553.88;;;-149.77;79.72
60055;BME280;45930;53.514;55.904;2023-02-12T02:33:47;49555.88;;;-149.77;80.54
60055;BME280;45930;53.514;55.904;2023-02-12T02:35:10;49547.94;;;-149.77;80.92
60055;BME280;45930;53.514;55.904;2023-02-12T02:39:40;49551.91;;;-149.77;79.93
60055;BME280;45930;53.514;55.904;2023-02-12T02:41:29;49542.00;;;-149.77;80.60
60055;BME280;45930;53.514;55.904;2023-02-12T02:42:38;49571.72;;;-149.77;80.89
60055;BME280;45930;53.514;55.904;2023-02-12T02:43:48;49534.06;;;-149.77;80.36
60055;BME280;45930;53.514;55.904;2023-02-12T02:44:52;49569.72;;;-149.77;80.76
60055;BME280;45930;53.514;55.904;2023-02-12T02:46:08;49557.84;;;-149.77;80.74
60055;BME280;45930;53.514;55.904;2023-02-12T02:47:11;49557.84;;;-149.77;80.90
60055;BME280;45930;53.514;55.904;2023-02-12T02:49:32;49510.31;;;-149.77;80.62
60055;BME280;45930;53.514;55.904;2023-02-12T02:50:37;49565.78;;;-149.77;79.89
60055;BME280;45930;53.514;55.904;2023-02-12T02:51:42;49522.19;;;-149.77;79.38
60055;BME280;45930;53.514;55.904;2023-02-12T02:54:00;49559.81;;;-149.77;77.42
60055;BME280;45930;53.514;55.904;2023-02-12T02:55:06;49587.56;;;-149.77;76.78
60055;BME280;45930;53.514;55.904;2023-02-12T02:56:12;49579.63;;;-149.77;76.12
60055;BME280;45930;53.514;55.904;2023-02-12T02:57:54;49569.72;;;-149.77;75.24
60055;BME280;45930;53.514;55.904;2023-02-12T02:59:03;49543.97;;;-149.77;74.42
60055;BME280;45930;53.514;55.904;2023-02-12T03:00:13;49557.84;;;-149.77;74.69
60055;BME280;45930;53.514;55.904;2023-02-12T03:01:29;49567.75;;;-149.77;74.14
60055;BME280;45930;53.514;55.904;2023-02-12T03:02:35;49542.00;;;-149.77;74.64
60055;BME280;45930;53.514;55.904;2023-02-12T03:04:44;49543.97;;;-149.77;73.87
60055;BME280;45930;53.514;55.904;2023-02-12T03:05:48;49540.03;;;-149.77;73.77
60055;BME280;45930;53.514;55.904;2023-02-12T03:07:37;49583.59;;;-149.77;73.82
60055;BME280;45930;53.514;55.904;2023-02-12T03:08:52;49565.78;;;-149.77;73.13
60055;BME280;45930;53.514;55.904;2023-02-12T03:10:02;49583.59;;;-149.77;73.48
60055;BME280;45930;53.514;55.904;2023-02-12T03:11:06;49538.03;;;-149.77;73.88
60055;BME280;45930;53.514;55.904;2023-02-12T03:12:17;49543.97;;;-149.77;73.55
60055;BME280;45930;53.514;55.904;2023-02-12T03:13:24;49563.78;;;-149.77;73.70
60055;BME280;45930;53.514;55.904;2023-02-12T03:14:30;49553.88;;;-149.77;72.92
60055;BME280;45930;53.514;55.904;2023-02-12T03:16:48;49559.81;;;-149.77;73.18
60055;BME280;45930;53.514;55.904;2023-02-12T03:17:50;49563.78;;;-149.77;73.68
60055;BME280;45930;53.514;55.904;2023-02-12T03:18:59;49538.03;;;-149.77;73.37
60055;BME280;45930;53.514;55.904;2023-02-12T03:20:05;49557.84;;;-149.77;73.36
60055;BME280;45930;53.514;55.904;2023-02-12T03:21:13;49553.88;;;-149.77;73.08
60055;BME280;45930;53.514;55.904;2023-02-12T03:22:20;49577.66;;;-149.77;72.30
60055;BME280;45930;53.514;55.904;2023-02-12T03:23:26;49587.56;;;-149.77;71.71
60055;BME280;45930;53.514;55.904;2023-02-12T03:25:55;49567.75;;;-149.77;71.24
60055;BME280;45930;53.514;55.904;2023-02-12T03:27:05;49559.81;;;-149.77;71.65
60055;BME280;45930;53.514;55.904;2023-02-12T03:28:26;49551.91;;;-149.77;71.30
60055;BME280;45930;53.514;55.904;2023-02-12T03:29:28;49575.69;;;-149.77;71.34
60055;BME280;45930;53.514;55.904;2023-02-12T03:30:46;49585.59;;;-149.77;71.46
60055;BME280;45930;53.514;55.904;2023-02-12T03:33:19;49573.69;;;-149.77;72.22
60055;BME280;45930;53.514;55.904;2023-02-12T03:35:41;49573.69;;;-149.77;71.74
60055;BME280;45930;53.514;55.904;2023-02-12T03:38:02;49555.88;;;-149.77;72.10
60055;BME280;45930;53.514;55.904;2023-02-12T03:40:40;49563.78;;;-149.77;71.51
60055;BME280;45930;53.514;55.904;2023-02-12T03:41:49;49575.69;;;-149.77;70.45
60055;BME280;45930;53.514;55.904;2023-02-12T03:43:01;49559.81;;;-149.77;71.20
60055;BME280;45930;53.514;55.904;2023-02-12T03:44:28;49571.72;;;-149.77;71.59
60055;BME280;45930;53.514;55.904;2023-02-12T03:45:43;49579.63;;;-149.77;71.13
60055;BME280;45930;53.514;55.904;2023-02-12T03:48:10;49545.97;;;-149.77;70.96
60055;BME280;45930;53.514;55.904;2023-02-12T03:49:20;49551.91;;;-149.77;71.31
60055;BME280;45930;53.514;55.904;2023-02-12T03:51:36;49565.78;;;-149.77;71.59
60055;BME280;45930;53.514;55.904;2023-02-12T03:52:38;49567.75;;;-149.77;71.19
60055;BME280;45930;53.514;55.904;2023-02-12T03:53:39;49575.69;;;-149.77;70.37
60055;BME280;45930;53.514;55.904;2023-02-12T03:54:42;49551.91;;;-149.77;70.38
60055;BME280;45930;53.514;55.904;2023-02-12T03:55:44;49557.84;;;-149.77;70.33
60055;BME280;45930;53.514;55.904;2023-02-12T03:57:58;49575.69;;;-149.77;68.62
60055;BME280;45930;53.514;55.904;2023-02-12T03:59:02;49545.97;;;-149.77;67.67
60055;BME280;45930;53.514;55.904;2023-02-12T04:00:12;49557.84;;;-149.77;68.23
60055;BME280;45930;53.514;55.904;2023-02-12T04:01:14;49587.56;;;-149.77;67.69
60055;BME280;45930;53.514;55.904;2023-02-12T04:02:15;49579.63;;;-149.77;67.73
60055;BME280;45930;53.514;55.904;2023-02-12T04:03:17;49585.59;;;-149.77;67.81
60055;BME280;45930;53.514;55.904;2023-02-12T04:04:18;49575.69;;;-149.77;67.49
60055;BME280;45930;53.514;55.904;2023-02-12T04:05:22;49555.88;;;-149.77;66.82
60055;BME280;45930;53.514;55.904;2023-02-12T04:06:26;49587.56;;;-149.77;67.44
60055;BME280;45930;53.514;55.904;2023-02-12T04:07:28;49585.59;;;-149.77;67.81
60055;BME280;45930;53.514;55.904;2023-02-12T04:08:30;49538.03;;;-149.77;68.04
60055;BME280;45930;53.514;55.904;2023-02-12T04:09:31;49563.78;;;-149.77;68.04
60055;BME280;45930;53.514;55.904;2023-02-12T04:13:18;49581.63;;;-149.77;66.45
60055;BME280;45930;53.514;55.904;2023-02-12T04:17:21;49563.78;;;-149.77;65.92
60055;BME280;45930;53.514;55.904;2023-02-12T04:22:03;49559.81;;;-149.77;65.39
60055;BME280;45930;53.514;55.904;2023-02-12T04:23:06;49559.81;;;-149.77;65.82
60055;BME280;45930;53.514;55.904;2023-02-12T04:24:15;49559.81;;;-149.77;65.26
60055;BME280;45930;53.514;55.904;2023-02-12T04:25:29;49595.50;;;-149.77;65.62
60055;BME280;45930;53.514;55.904;2023-02-12T04:26:44;49573.69;;;-149.77;65.30
60055;BME280;45930;53.514;55.904;2023-02-12T04:27:58;49555.88;;;-149.77;65.59
60055;BME280;45930;53.514;55.904;2023-02-12T04:30:24;49577.66;;;-149.77;64.93
60055;BME280;45930;53.514;55.904;2023-02-12T04:31:38;49563.78;;;-149.77;64.80
60055;BME280;45930;53.514;55.904;2023-02-12T04:32:47;49563.78;;;-149.77;64.81
60055;BME280;45930;53.514;55.904;2023-02-12T04:36:53;49543.97;;;-149.77;63.68
60055;BME280;45930;53.514;55.904;2023-02-12T04:39:31;49563.78;;;-149.77;63.83
60055;BME280;45930;53.514;55.904;2023-02-12T04:40:33;49557.84;;;-149.77;64.37
60055;BME280;45930;53.514;55.904;2023-02-12T04:41:39;49595.50;;;-149.77;64.10
60055;BME280;45930;53.514;55.904;2023-02-12T04:42:48;49569.72;;;-149.77;63.99
60055;BME280;45930;53.514;55.904;2023-02-12T04:43:49;49555.88;;;-149.77;63.43
60055;BME280;45930;53.514;55.904;2023-02-12T04:44:50;49543.97;;;-149.77;63.38
60055;BME280;45930;53.514;55.904;2023-02-12T04:45:50;49571.72;;;-149.77;63.18
60055;BME280;45930;53.514;55.904;2023-02-12T04:46:52;49540.03;;;-149.77;62.63
60055;BME280;45930;53.514;55.904;2023-02-12T04:47:53;49559.81;;;-149.77;62.47
60055;BME280;45930;53.514;55.904;2023-02-12T04:48:57;49567.75;;;-149.77;61.93
60055;BME280;45930;53.514;55.904;2023-02-12T04:49:58;49591.53;;;-149.77;61.63
60055;BME280;45930;53.514;55.904;2023-02-12T04:50:59;49557.84;;;-149.77;61.27
60055;BME280;45930;53.514;55.904;2023-02-12T04:52:00;49557.84;;;-149.77;60.96
60055;BME280;45930;53.514;55.904;2023-02-12T04:53:00;49567.75;;;-149.77;61.03
60055;BME280;45930;53.514;55.904;2023-02-12T04:54:01;49583.59;;;-149.77;60.88
60055;BME280;45930;53.514;55.904;2023-02-12T04:55:02;49534.06;;;-149.77;60.52
60055;BME280;45930;53.514;55.904;2023-02-12T04:56:03;49542.00;;;-149.77;60.62
60055;BME280;45930;53.514;55.904;2023-02-12T04:57:04;49573.69;;;-149.77;60.40
60055;BME280;45930;53.514;55.904;2023-02-12T04:58:05;49581.63;;;-149.77;60.43
60055;BME280;45930;53.514;55.904;2023-02-12T04:59:06;49549.94;;;-149.77;60.11
60055;BME280;45930;53.514;55.904;2023-02-12T05:00:09;49571.72;;;-149.77;59.38
60055;BME280;45930;53.514;55.904;2023-02-12T05:01:11;49543.97;;;-149.77;59.07
60055;BME280;45930;53.514;55.904;2023-02-12T05:02:12;49599.44;;;-149.77;59.74
60055;BME280;45930;53.514;55.904;2023-02-12T05:03:12;49559.81;;;-149.77;59.76
60055;BME280;45930;53.514;55.904;2023-02-12T05:04:15;49567.75;;;-149.77;58.21
60055;BME280;45930;53.514;55.904;2023-02-12T05:05:16;49532.09;;;-149.77;58.25
60055;BME280;45930;53.514;55.904;2023-02-12T05:06:18;49522.19;;;-149.77;58.06
60055;BME280;45930;53.514;55.904;2023-02-12T05:07:18;49540.03;;;-149.77;58.00
60055;BME280;45930;53.514;55.904;2023-02-12T05:08:19;49569.72;;;-149.77;57.70
60055;BME280;45930;53.514;55.904;2023-02-12T05:09:20;49536.06;;;-149.77;57.38
60055;BME280;45930;53.514;55.904;2023-02-12T05:10:21;49567.75;;;-149.77;56.84
60055;BME280;45930;53.514;55.904;2023-02-12T05:11:22;49543.97;;;-149.77;56.77
60055;BME280;45930;53.514;55.904;2023-02-12T05:12:23;49538.03;;;-149.77;55.69
60055;BME280;45930;53.514;55.904;2023-02-12T05:13:23;49520.22;;;-149.77;54.39
60055;BME280;45930;53.514;55.904;2023-02-12T05:14:24;49569.72;;;-149.77;54.68
60055;BME280;45930;53.514;55.904;2023-02-12T05:15:25;49551.91;;;-149.77;55.00
60055;BME280;45930;53.514;55.904;2023-02-12T05:16:26;49559.81;;;-149.77;54.69
60055;BME280;45930;53.514;55.904;2023-02-12T05:17:30;49559.81;;;-149.77;54.79
60055;BME280;45930;53.514;55.904;2023-02-12T05:18:31;49543.97;;;-149.77;54.80
60055;BME280;45930;53.514;55.904;2023-02-12T05:19:32;49569.72;;;-149.77;54.64
60055;BME280;45930;53.514;55.904;2023-02-12T05:20:33;49540.03;;;-149.77;54.63
60055;BME280;45930;53.514;55.904;2023-02-12T05:21:34;49553.88;;;-149.77;53.84
60055;BME280;45930;53.514;55.904;2023-02-12T05:22:35;49559.81;;;-149.77;53.93
60055;BME280;45930;53.514;55.904;2023-02-12T05:23:38;49599.44;;;-149.77;53.72
60055;BME280;45930;53.514;55.904;2023-02-12T05:24:39;49579.63;;;-149.77;54.09
60055;BME280;45930;53.514;55.904;2023-02-12T05:25:40;49581.63;;;-149.77;54.99
60055;BME280;45930;53.514;55.904;2023-02-12T05:26:40;49569.72;;;-149.77;54.88
60055;BME280;45930;53.514;55.904;2023-02-12T05:27:41;49540.03;;;-149.77;54.73
60055;BME280;45930;53.514;55.904;2023-02-12T05:28:42;49567.75;;;-149.77;53.52
60055;BME280;45930;53.514;55.904;2023-02-12T05:29:43;49547.94;;;-149.77;53.31
60055;BME280;45930;53.514;55.904;2023-02-12T05:30:44;49551.91;;;-149.77;53.71
60055;BME280;45930;53.514;55.904;2023-02-12T05:31:45;49549.94;;;-149.77;53.80
60055;BME280;45930;53.514;55.904;2023-02-12T05:32:46;49557.84;;;-149.77;53.50
60055;BME280;45930;53.514;55.904;2023-02-12T05:33:47;49567.75;;;-149.77;53.17
60055;BME280;45930;53.514;55.904;2023-02-12T05:34:48;49575.69;;;-149.77;52.57
60055;BME280;45930;53.514;55.904;2023-02-12T05:35:49;49567.75;;;-149.77;52.45
60055;BME280;45930;53.514;55.904;2023-02-12T05:36:49;49599.44;;;-149.77;51.96
60055;BME280;45930;53.514;55.904;2023-02-12T05:37:50;49551.91;;;-149.77;52.10
60055;BME280;45930;53.514;55.904;2023-02-12T05:38:52;49569.72;;;-149.77;51.95
60055;BME280;45930;53.514;55.904;2023-02-12T05:39:56;49553.88;;;-149.77;51.78
60055;BME280;45930;53.514;55.904;2023-02-12T05:41:08;49583.59;;;-149.77;51.29
60055;BME280;45930;53.514;55.904;2023-02-12T05:42:10;49577.66;;;-149.77;51.39
60055;BME280;45930;53.514;55.904;2023-02-12T05:43:11;49522.19;;;-149.77;51.83
60055;BME280;45930;53.514;55.904;2023-02-12T05:44:12;49553.88;;;-149.77;51.50
60055;BME280;45930;53.514;55.904;2023-02-12T05:45:14;49571.72;;;-149.77;51.35
60055;BME280;45930;53.514;55.904;2023-02-12T05:46:17;49571.72;;;-149.77;51.34
60055;BME280;45930;53.514;55.904;2023-02-12T05:47:18;49595.50;;;-149.77;51.13
60055;BME280;45930;53.514;55.904;2023-02-12T05:48:18;49571.72;;;-149.77;51.12
60055;BME280;45930;53.514;55.904;2023-02-12T05:49:19;49567.75;;;-149.77;51.05
60055;BME280;45930;53.514;55.904;2023-02-12T05:50:20;49571.72;;;-149.77;51.39
60055;BME280;45930;53.514;55.904;2023-02-12T05:51:24;49567.75;;;-149.77;51.65
60055;BME280;45930;53.514;55.904;2023-02-12T05:52:25;49549.94;;;-149.77;51.48
60055;BME280;45930;53.514;55.904;2023-02-12T05:53:26;49583.59;;;-149.77;51.13
60055;BME280;45930;53.514;55.904;2023-02-12T05:54:27;49542.00;;;-149.77;51.48
60055;BME280;45930;53.514;55.904;2023-02-12T05:55:27;49551.91;;;-149.77;51.18
60055;BME280;45930;53.514;55.904;2023-02-12T05:56:34;49547.94;;;-149.77;51.41
60055;BME280;45930;53.514;55.904;2023-02-12T05:57:35;49583.59;;;-149.77;51.03
60055;BME280;45930;53.514;55.904;2023-02-12T05:58:36;49573.69;;;-149.77;51.12
60055;BME280;45930;53.514;55.904;2023-02-12T05:59:39;49545.97;;;-149.77;50.72
60055;BME280;45930;53.514;55.904;2023-02-12T06:00:40;49569.72;;;-149.77;50.48
60055;BME280;45930;53.514;55.904;2023-02-12T06:01:42;49518.22;;;-149.77;50.18
60055;BME280;45930;53.514;55.904;2023-02-12T06:02:43;49581.63;;;-149.77;49.86
60055;BME280;45930;53.514;55.904;2023-02-12T06:03:44;49538.03;;;-149.77;49.76
60055;BME280;45930;53.514;55.904;2023-02-12T06:04:45;49545.97;;;-149.77;49.20
60055;BME280;45930;53.514;55.904;2023-02-12T06:05:49;49547.94;;;-149.77;49.02
60055;BME280;45930;53.514;55.904;2023-02-12T06:06:51;49551.91;;;-149.77;48.43
60055;BME280;45930;53.514;55.904;2023-02-12T06:07:52;49547.94;;;-149.77;48.46
60055;BME280;45930;53.514;55.904;2023-02-12T06:08:54;49563.78;;;-149.77;48.46
60055;BME280;45930;53.514;55.904;2023-02-12T06:09:55;49563.78;;;-149.77;47.90
60055;BME280;45930;53.514;55.904;2023-02-12T06:10:59;49530.13;;;-149.77;47.79
60055;BME280;45930;53.514;55.904;2023-02-12T06:12:00;49563.78;;;-149.77;47.81
60055;BME280;45930;53.514;55.904;2023-02-12T06:13:01;49540.03;;;-149.77;47.80
60055;BME280;45930;53.514;55.904;2023-02-12T06:14:07;49555.88;;;-149.77;48.18